createdAt,value
2023-02-24T00:02:15.030Z,101441.44
2023-02-24T00:04:42.199Z,101434.72
2023-02-24T00:07:11.691Z,101450.63
2023-02-24T00:09:39.524Z,101410.06
2023-02-24T00:12:13.393Z,101401.59
2023-02-24T00:14:45.359Z,101443.97
2023-02-24T00:17:16.084Z,101394.81
2023-02-24T00:19:43.407Z,101421.25
2023-02-24T00:22:10.873Z,101406.34
2023-02-24T00:24:37.771Z,101401.41
2023-02-24T00:27:12.029Z,101415.06
2023-02-24T00:29:41.831Z,101410.38
2023-02-24T00:32:13.318Z,101365.75
2023-02-24T00:34:41.186Z,101377.00
2023-02-24T00:37:08.085Z,101357.44
2023-02-24T00:39:36.162Z,101407.09
2023-02-24T00:42:05.619Z,101393.38
2023-02-24T00:44:40.080Z,101386.59
2023-02-24T00:47:08.932Z,101369.00
2023-02-24T00:49:42.592Z,101348.34
2023-02-24T00:52:13.862Z,101339.44
2023-02-24T00:54:41.926Z,101358.84
2023-02-24T00:57:09.021Z,101342.06
2023-02-24T00:59:36.686Z,101351.06
2023-02-24T01:02:04.118Z,101342.81
2023-02-24T01:04:31.223Z,101339.44
2023-02-24T01:07:01.905Z,101270.09
2023-02-24T01:09:31.086Z,101341.94
2023-02-24T01:12:17.259Z,101314.59
2023-02-24T01:14:50.008Z,101299.41
2023-02-24T01:17:18.506Z,101322.00
2023-02-24T01:19:46.090Z,101312.44
2023-02-24T01:22:15.134Z,101296.09
2023-02-24T01:24:44.212Z,101299.31
2023-02-24T01:27:13.483Z,101307.66
2023-02-24T01:29:41.479Z,101284.78
2023-02-24T01:32:17.355Z,101278.16
2023-02-24T01:34:44.846Z,101290.00
2023-02-24T01:37:16.305Z,101263.56
2023-02-24T01:39:44.834Z,101291.22
2023-02-24T01:42:16.944Z,101290.22
2023-02-24T01:44:43.852Z,101278.63
2023-02-24T01:47:11.863Z,101264.13
2023-02-24T01:49:42.781Z,101278.41
2023-02-24T01:52:11.411Z,101252.72
2023-02-24T01:55:01.375Z,101246.88
2023-02-24T01:57:31.489Z,101221.41
2023-02-24T02:00:11.342Z,101218.25
2023-02-24T02:02:46.520Z,101240.09
2023-02-24T02:05:14.481Z,101248.66
2023-02-24T02:07:43.592Z,101233.47
2023-02-24T02:10:11.493Z,101221.63
2023-02-24T03:13:57.835Z,101154.53
2023-02-24T03:16:27.385Z,101134.41
2023-02-24T03:19:00.010Z,101120.19
2023-02-24T03:21:34.931Z,101148.78
2023-02-24T03:24:03.211Z,101149.53
2023-02-24T03:26:37.833Z,101123.91
2023-02-24T03:29:40.111Z,101136.44
2023-02-24T03:32:16.384Z,101125.94
2023-02-24T03:35:21.948Z,101047.22
2023-02-24T03:37:50.352Z,101077.41
2023-02-24T03:40:18.354Z,101088.16
2023-02-24T03:42:52.357Z,101101.66
2023-02-24T03:45:22.732Z,101094.75
2023-02-24T03:47:51.122Z,101103.03
2023-02-24T03:50:20.242Z,101098.53
2023-02-24T03:53:13.988Z,101092.25
2023-02-24T03:56:00.623Z,101077.72
2023-02-24T03:58:42.563Z,101086.94
2023-02-24T04:01:43.262Z,101070.44
2023-02-24T04:04:33.494Z,101063.50
2023-02-24T04:07:26.469Z,101065.03
2023-02-24T04:10:05.246Z,101053.69
2023-02-24T04:12:42.818Z,101042.78
2023-02-24T04:15:12.913Z,101049.09
2023-02-24T04:17:47.361Z,101016.81
2023-02-24T04:20:20.778Z,101038.44
2023-02-24T04:22:52.384Z,100997.88
2023-02-24T04:25:24.802Z,101017.81
2023-02-24T04:27:55.926Z,101024.38
2023-02-24T04:30:27.343Z,100995.28
2023-02-24T04:32:54.276Z,101001.63
2023-02-24T04:35:23.124Z,100977.13
2023-02-24T04:37:53.131Z,100985.13
2023-02-24T04:40:24.339Z,100987.28
2023-02-24T04:42:52.866Z,100983.75
2023-02-24T04:45:19.747Z,100970.41
2023-02-24T04:47:49.538Z,100961.69
2023-02-24T04:50:23.076Z,100863.63
2023-02-24T04:52:56.561Z,100958.06
2023-02-24T04:55:26.565Z,100950.19
2023-02-24T04:57:53.874Z,100870.69
2023-02-24T05:00:22.625Z,100924.69
2023-02-24T05:02:51.002Z,100937.84
2023-02-24T05:05:25.707Z,100932.38
2023-02-24T05:07:54.651Z,100902.50
2023-02-24T05:10:28.051Z,100896.22
2023-02-24T05:12:58.317Z,100896.78
2023-02-24T05:15:32.759Z,100893.03
2023-02-24T05:18:08.294Z,100870.16
2023-02-24T05:21:00.805Z,100868.47
2023-02-24T05:23:34.294Z,100890.88
2023-02-24T05:26:03.771Z,100879.56
2023-02-24T05:28:33.554Z,100877.09
2023-02-24T05:31:06.389Z,100866.97
2023-02-24T05:33:35.024Z,100868.66
2023-02-24T05:36:12.150Z,100853.38
2023-02-24T05:38:38.973Z,100834.63
2023-02-24T05:41:09.086Z,100831.00
2023-02-24T05:43:36.232Z,100837.34
2023-02-24T05:46:04.356Z,100798.94
2023-02-24T05:48:35.482Z,100833.38
2023-02-24T05:51:05.235Z,100829.81
2023-02-24T05:53:32.012Z,100787.31
2023-02-24T05:56:01.503Z,100782.78
2023-02-24T05:58:29.210Z,100807.69
2023-02-24T06:00:56.323Z,100804.13
2023-02-24T06:03:31.067Z,100712.00
2023-02-24T06:06:05.629Z,100790.25
2023-02-24T06:08:42.165Z,100777.63
2023-02-24T06:11:12.773Z,100764.22
2023-02-24T06:13:39.409Z,100785.94
2023-02-24T06:16:07.007Z,100762.91
2023-02-24T06:18:34.013Z,100759.34
2023-02-24T06:21:03.827Z,100739.31
2023-02-24T06:23:30.561Z,100756.53
2023-02-24T06:26:02.251Z,100765.69
2023-02-24T06:28:29.044Z,100724.22
2023-02-24T06:30:56.305Z,100727.41
2023-02-24T06:33:26.473Z,100746.66
2023-02-24T06:35:53.437Z,100741.50
2023-02-24T06:38:20.385Z,100722.06
2023-02-24T06:40:47.607Z,100714.38
2023-02-24T06:43:14.341Z,100720.81
2023-02-24T06:45:41.407Z,100744.69
2023-02-24T06:48:09.142Z,100728.72
2023-02-24T06:50:35.906Z,100728.53
2023-02-24T06:53:03.002Z,100733.38
2023-02-24T06:55:30.153Z,100695.41
2023-02-24T06:58:04.821Z,100719.91
2023-02-24T07:00:37.316Z,100724.63
2023-02-24T07:03:15.290Z,100724.84
2023-02-24T07:05:49.373Z,100696.34
2023-02-24T07:08:23.004Z,100712.56
2023-02-24T07:10:58.241Z,100677.97
2023-02-24T07:13:30.075Z,100714.06
2023-02-24T07:15:57.051Z,100693.25
2023-02-24T07:18:26.574Z,100672.22
2023-02-24T07:20:54.349Z,100686.31
2023-02-24T07:23:21.505Z,100699.59
2023-02-24T07:25:48.229Z,100655.44
2023-02-24T07:28:15.295Z,100658.78
2023-02-24T07:30:42.523Z,100650.06
2023-02-24T07:33:09.315Z,100648.06
2023-02-24T07:35:36.184Z,100670.50
2023-02-24T07:38:05.619Z,100678.16
2023-02-24T07:40:33.936Z,100664.28
2023-02-24T07:43:01.855Z,100661.47
2023-02-24T07:45:29.772Z,100617.84
2023-02-24T07:47:57.494Z,100599.88
2023-02-24T07:50:24.488Z,100633.41
2023-02-24T07:52:51.846Z,100640.78
2023-02-24T07:55:18.718Z,100613.53
2023-02-24T07:57:48.485Z,100632.47
2023-02-24T08:00:18.684Z,100614.19
2023-02-24T08:02:50.470Z,100593.38
2023-02-24T08:05:21.885Z,100613.13
2023-02-24T08:07:49.952Z,100610.50
2023-02-24T08:10:26.221Z,100603.38
2023-02-24T08:12:55.150Z,100598.13
2023-02-24T08:15:34.686Z,100609.25
2023-02-24T08:18:02.109Z,100586.97
2023-02-24T08:20:36.433Z,100537.09
2023-02-24T08:23:06.368Z,100590.53
2023-02-24T08:25:36.350Z,100601.06
2023-02-24T08:28:09.734Z,100600.63
2023-02-24T08:30:40.710Z,100531.31
2023-02-24T08:33:11.644Z,100584.53
2023-02-24T08:35:45.250Z,100579.06
2023-02-24T08:38:14.527Z,100564.97
2023-02-24T08:40:52.143Z,100542.81
2023-02-24T08:43:33.237Z,100521.69
2023-02-24T08:46:05.100Z,100552.00
2023-02-24T08:48:37.481Z,100520.72
2023-02-24T08:51:23.216Z,100527.41
2023-02-24T08:53:55.566Z,100534.16
2023-02-24T08:56:26.849Z,100527.81
2023-02-24T08:59:05.559Z,100528.44
2023-02-24T09:01:40.171Z,100512.66
2023-02-24T09:04:12.667Z,100479.78
2023-02-24T09:07:09.685Z,100497.38
2023-02-24T09:09:42.421Z,100476.06
2023-02-24T09:12:21.906Z,100494.00
2023-02-24T09:14:57.766Z,100473.50
2023-02-24T09:18:02.264Z,100477.47
2023-02-24T09:20:47.852Z,100439.25
2023-02-24T09:23:20.115Z,100471.66
2023-02-24T09:25:50.967Z,100472.41
2023-02-24T09:28:19.166Z,100483.75
2023-02-24T09:30:51.645Z,100453.91
2023-02-24T09:33:42.049Z,100471.94
2023-02-24T09:36:28.498Z,100468.13
2023-02-24T09:39:10.042Z,100465.31
2023-02-24T09:41:54.762Z,100423.59
2023-02-24T09:44:33.531Z,100453.16
2023-02-24T09:47:39.664Z,100414.28
2023-02-24T09:50:51.270Z,100457.47
2023-02-24T09:53:19.573Z,100435.00
2023-02-24T09:56:03.959Z,100450.84
2023-02-24T09:58:43.982Z,100449.16
2023-02-24T10:01:33.548Z,100448.94
2023-02-24T10:04:20.060Z,100442.84
2023-02-24T10:07:03.228Z,100454.47
2023-02-24T10:09:43.457Z,100454.59
2023-02-24T10:12:19.928Z,100453.28
2023-02-24T10:14:51.281Z,100444.88
2023-02-24T10:17:24.966Z,100413.28
2023-02-24T10:20:13.789Z,100398.44
2023-02-24T10:22:58.612Z,100380.22
2023-02-24T10:25:55.757Z,100408.09
2023-02-24T10:28:36.121Z,100438.13
2023-02-24T10:31:26.756Z,100430.09
2023-02-24T10:34:01.344Z,100427.41
2023-02-24T10:36:35.639Z,100428.03
2023-02-24T10:39:26.409Z,100385.97
2023-02-24T10:41:57.536Z,100412.53
2023-02-24T10:44:36.552Z,100392.59
2023-02-24T10:47:12.535Z,100398.00
2023-02-24T10:49:59.569Z,100404.41
2023-02-24T10:52:50.506Z,100409.69
2023-02-24T10:55:44.915Z,100401.88
2023-02-24T10:58:28.345Z,100391.00
2023-02-24T11:01:07.077Z,100371.47
2023-02-24T11:03:57.471Z,100365.28
2023-02-24T11:06:41.089Z,100366.72
2023-02-24T11:09:32.095Z,100399.16
2023-02-24T11:12:44.725Z,100394.88
2023-02-24T11:15:38.900Z,100389.06
2023-02-24T11:18:10.714Z,100387.28
2023-02-24T11:20:49.293Z,100389.69
2023-02-24T11:23:25.070Z,100371.25
2023-02-24T11:25:54.394Z,100392.09
2023-02-24T11:28:31.290Z,100384.84
2023-02-24T11:31:23.208Z,100377.41
2023-02-24T11:33:57.504Z,100362.09
2023-02-24T11:36:41.659Z,100352.59
2023-02-24T11:39:25.858Z,100343.84
2023-02-24T11:41:59.893Z,100345.94
2023-02-24T11:44:36.780Z,100351.16
2023-02-24T11:47:09.782Z,100348.53
2023-02-24T11:49:43.183Z,100332.94
2023-02-24T11:52:40.324Z,100313.19
2023-02-24T11:55:26.224Z,100346.25
2023-02-24T11:57:59.634Z,100335.56
2023-02-24T12:00:31.020Z,100313.28
2023-02-24T12:02:59.242Z,100328.06
2023-02-24T12:05:31.914Z,100327.38
2023-02-24T12:08:05.882Z,100295.72
2023-02-24T12:10:36.110Z,100299.59
2023-02-24T12:13:14.797Z,100332.97
2023-02-24T12:15:48.798Z,100321.94
2023-02-24T12:18:37.091Z,100332.81
2023-02-24T12:21:36.305Z,100331.66
2023-02-24T12:24:08.425Z,100318.53
2023-02-24T12:27:06.413Z,100263.09
2023-02-24T12:29:54.668Z,100332.66
2023-02-24T12:32:57.700Z,100320.41
2023-02-24T12:35:37.951Z,100281.09
2023-02-24T12:38:26.666Z,100316.09
2023-02-24T12:41:37.255Z,100315.56
2023-02-24T12:44:04.180Z,100305.41
2023-02-24T12:46:34.558Z,100296.06
2023-02-24T12:49:10.583Z,100278.78
2023-02-24T12:51:37.286Z,100306.75
2023-02-24T12:54:13.096Z,100299.34
2023-02-24T12:56:54.763Z,100273.66
2023-02-24T12:59:27.517Z,100276.06
2023-02-24T13:02:19.637Z,100306.56
2023-02-24T13:05:15.523Z,100301.94
2023-02-24T13:08:03.516Z,100253.69
2023-02-24T13:10:47.058Z,100301.81
2023-02-24T13:13:19.657Z,100297.13
2023-02-24T13:15:54.788Z,100282.66
2023-02-24T13:18:45.435Z,100276.25
2023-02-24T13:21:14.872Z,100289.63
2023-02-24T13:23:42.914Z,100285.56
2023-02-24T13:26:10.515Z,100289.34
2023-02-24T13:28:38.682Z,100261.22
2023-02-24T13:31:11.869Z,100276.25
2023-02-24T13:33:41.859Z,100265.81
2023-02-24T13:36:08.563Z,100279.06
2023-02-24T13:38:38.869Z,100243.13
2023-02-24T13:41:06.616Z,100270.56
2023-02-24T13:43:33.562Z,100247.88
2023-02-24T13:46:03.507Z,100264.03
2023-02-24T13:48:48.581Z,100262.91
2023-02-24T13:51:35.261Z,100246.47
2023-02-24T13:54:29.733Z,100242.00
2023-02-24T13:57:06.454Z,100253.56
2023-02-24T13:59:57.251Z,100255.78
2023-02-24T14:02:30.058Z,100243.97
2023-02-24T14:05:01.147Z,100213.00
2023-02-24T14:07:32.106Z,100245.22
2023-02-24T14:10:05.806Z,100229.38
2023-02-24T14:12:36.282Z,100247.16
2023-02-24T14:15:04.453Z,100272.03
2023-02-24T14:17:32.612Z,100257.41
2023-02-24T14:20:14.446Z,100256.06
2023-02-24T14:22:53.491Z,100205.59
2023-02-24T14:25:21.868Z,100260.78
2023-02-24T14:27:51.274Z,100243.75
2023-02-24T14:30:41.753Z,100258.91
2023-02-24T14:33:18.892Z,100253.78
2023-02-24T14:35:47.250Z,100241.63
2023-02-24T14:38:38.470Z,100241.38
2023-02-24T14:41:17.404Z,100216.31
2023-02-24T14:43:44.094Z,100248.81
2023-02-24T14:46:10.927Z,100239.84
2023-02-24T14:48:37.758Z,100185.81
2023-02-24T14:51:12.874Z,100244.91
2023-02-24T14:53:48.737Z,100244.34
2023-02-24T14:56:16.586Z,100211.16
2023-02-24T14:58:50.966Z,100234.81
2023-02-24T15:01:32.528Z,100239.31
2023-02-24T15:04:09.956Z,100244.06
2023-02-24T15:06:40.916Z,100266.13
2023-02-24T15:09:23.779Z,100232.00
2023-02-24T15:11:53.282Z,100224.47
2023-02-24T15:14:26.954Z,100214.69
2023-02-24T15:17:00.440Z,100219.22
2023-02-24T15:19:33.453Z,100236.22
2023-02-24T15:22:00.383Z,100252.94
2023-02-24T15:24:30.964Z,100251.50
2023-02-24T15:26:59.093Z,100256.53
2023-02-24T15:29:27.843Z,100228.41
2023-02-24T15:31:56.740Z,100244.84
2023-02-24T15:34:32.387Z,100236.97
2023-02-24T15:37:04.273Z,100272.59
2023-02-24T15:39:34.321Z,100239.47
2023-02-24T15:42:09.755Z,100271.28
2023-02-24T15:44:37.747Z,100249.38
2023-02-24T15:47:40.077Z,100255.13
2023-02-24T15:50:07.221Z,100260.13
2023-02-24T15:52:34.069Z,100257.88
2023-02-24T15:55:02.678Z,100228.16
2023-02-24T15:57:32.089Z,100267.00
2023-02-24T15:59:59.629Z,100235.22
2023-02-24T16:02:27.897Z,100251.97
2023-02-24T16:04:54.800Z,100246.69
2023-02-24T16:07:28.713Z,100240.84
2023-02-24T16:09:57.482Z,100265.25
2023-02-24T16:12:32.236Z,100282.38
2023-02-24T16:15:03.272Z,100247.13
2023-02-24T16:17:39.723Z,100275.13
2023-02-24T16:20:11.746Z,100286.84
2023-02-24T16:22:38.626Z,100267.63
2023-02-24T16:25:05.703Z,100263.91
2023-02-24T16:27:32.717Z,100254.38
2023-02-24T16:30:00.160Z,100280.94
2023-02-24T16:32:27.662Z,100270.66
2023-02-24T16:34:54.846Z,100263.00
2023-02-24T16:37:24.580Z,100276.75
2023-02-24T16:39:51.275Z,100241.91
2023-02-24T16:42:20.806Z,100253.91
2023-02-24T16:44:49.268Z,100269.34
2023-02-24T16:47:23.902Z,100285.72
2023-02-24T16:49:55.436Z,100294.59
2023-02-24T16:52:23.447Z,100267.31
2023-02-24T16:54:50.488Z,100229.72
2023-02-24T16:57:17.332Z,100285.13
2023-02-24T16:59:44.051Z,100234.88
2023-02-24T17:02:21.096Z,100297.06
2023-02-24T17:04:47.924Z,100264.53
2023-02-24T17:07:16.168Z,100286.81
2023-02-24T17:09:43.072Z,100285.25
2023-02-24T17:12:12.994Z,100297.91
2023-02-24T17:14:39.826Z,100305.47
2023-02-24T17:17:06.890Z,100310.84
2023-02-24T17:19:33.630Z,100308.56
2023-02-24T17:22:00.349Z,100304.84
2023-02-24T17:24:28.592Z,100313.22
2023-02-24T17:26:58.782Z,100292.06
2023-02-24T17:29:25.584Z,100290.44
2023-02-24T17:31:52.803Z,100310.56
2023-02-24T17:34:21.399Z,100309.41
2023-02-24T17:36:48.175Z,100330.44
2023-02-24T17:39:15.042Z,100311.00
2023-02-24T17:41:41.712Z,100315.75
2023-02-24T17:44:08.383Z,100324.88
2023-02-24T17:46:35.386Z,100316.97
2023-02-24T17:49:05.019Z,100327.22
2023-02-24T17:51:31.774Z,100307.59
2023-02-24T17:53:58.809Z,100321.84
2023-02-24T17:56:25.537Z,100320.91
2023-02-24T17:58:55.460Z,100339.44
2023-02-24T18:01:22.209Z,100328.66
2023-02-24T18:03:48.929Z,100322.91
2023-02-24T18:06:15.762Z,100322.91
2023-02-24T18:08:42.568Z,100304.72
2023-02-24T18:11:14.100Z,100318.59
2023-02-24T18:13:40.893Z,100343.00
2023-02-24T18:16:13.890Z,100325.22
2023-02-24T18:18:41.184Z,100347.22
2023-02-24T18:21:08.704Z,100340.16
2023-02-24T18:23:38.375Z,100332.47
2023-02-24T18:26:07.097Z,100342.88
2023-02-24T18:28:34.119Z,100364.75
2023-02-24T18:31:03.458Z,100342.94
2023-02-24T18:33:30.393Z,100311.22
2023-02-24T18:36:01.974Z,100350.63
2023-02-24T18:38:29.386Z,100333.47
2023-02-24T18:41:05.037Z,100340.09
2023-02-24T18:43:33.409Z,100343.41
2023-02-24T18:46:08.835Z,100328.94
2023-02-24T18:48:36.184Z,100326.41
2023-02-24T18:51:02.956Z,100324.53
2023-02-24T18:53:32.022Z,100279.72
2023-02-24T18:56:04.097Z,100332.41
2023-02-24T18:58:31.244Z,100331.69
2023-02-24T19:00:58.143Z,100330.25
2023-02-24T19:03:25.391Z,100313.72
2023-02-24T19:05:52.178Z,100352.69
2023-02-24T19:08:19.129Z,100325.03
2023-02-24T19:10:45.988Z,100328.63
2023-02-24T19:13:13.054Z,100340.97
2023-02-24T19:15:40.546Z,100316.56
2023-02-24T19:18:07.429Z,100297.59
2023-02-24T19:20:34.180Z,100326.50
2023-02-24T19:23:01.455Z,100328.75
2023-02-24T19:25:28.417Z,100308.13
2023-02-24T19:27:55.276Z,100350.06
2023-02-24T19:30:22.039Z,100314.28
2023-02-24T19:32:49.812Z,100350.13
2023-02-24T19:35:16.824Z,100339.34
2023-02-24T19:37:43.624Z,100353.22
2023-02-24T19:40:11.334Z,100353.09
2023-02-24T19:42:38.117Z,100338.84
2023-02-24T19:45:08.712Z,100336.97
2023-02-24T19:47:35.556Z,100313.50
2023-02-24T19:50:02.400Z,100331.84
2023-02-24T19:52:29.082Z,100363.31
2023-02-24T19:54:58.100Z,100365.31
2023-02-24T19:57:24.768Z,100346.44
2023-02-24T19:59:51.937Z,100334.25
2023-02-24T20:02:19.306Z,100371.16
2023-02-24T20:04:46.110Z,100342.63
2023-02-24T20:07:12.860Z,100342.63
2023-02-24T20:09:42.780Z,100361.09
2023-02-24T20:12:10.373Z,100386.84
2023-02-24T20:14:37.241Z,100375.75
2023-02-24T20:17:04.201Z,100306.56
2023-02-24T20:19:32.905Z,100382.84
2023-02-24T20:22:00.550Z,100338.41
2023-02-24T20:24:27.546Z,100380.34
2023-02-24T20:26:54.370Z,100314.47
2023-02-24T20:29:22.019Z,100393.69
2023-02-24T20:31:49.263Z,100380.06
2023-02-24T20:34:16.861Z,100383.53
2023-02-24T20:36:43.934Z,100385.22
2023-02-24T20:39:13.480Z,100352.78
2023-02-24T20:41:40.924Z,100388.72
2023-02-24T20:44:08.183Z,100366.69
2023-02-24T20:46:35.320Z,100395.41
2023-02-24T20:49:07.133Z,100423.66
2023-02-24T20:51:35.687Z,100404.66
2023-02-24T20:54:03.032Z,100401.91
2023-02-24T20:56:34.079Z,100333.34
2023-02-24T20:59:06.361Z,100390.41
2023-02-24T21:01:34.413Z,100398.50
2023-02-24T21:04:01.743Z,100355.19
2023-02-24T21:06:29.292Z,100383.91
2023-02-24T21:08:57.082Z,100363.56
2023-02-24T21:11:24.494Z,100397.19
2023-02-24T21:13:52.448Z,100398.19
2023-02-24T21:16:21.157Z,100413.31
2023-02-24T21:18:50.027Z,100380.25
2023-02-24T21:21:17.582Z,100408.41
2023-02-24T21:23:44.395Z,100370.81
2023-02-24T21:26:12.438Z,100386.00
2023-02-24T21:28:40.559Z,100369.16
2023-02-24T21:31:12.650Z,100395.94
2023-02-24T21:33:39.656Z,100387.94
2023-02-24T21:36:10.987Z,100389.81
2023-02-24T21:38:38.164Z,100383.13
2023-02-24T21:41:07.296Z,100374.97
2023-02-24T21:43:34.849Z,100386.72
2023-02-24T21:46:03.092Z,100351.25
2023-02-24T21:48:29.887Z,100341.38
2023-02-24T21:51:03.920Z,100391.50
2023-02-24T21:53:35.507Z,100395.94
2023-02-24T21:56:16.548Z,100395.94
2023-02-24T21:58:54.647Z,100397.72
2023-02-24T22:01:26.857Z,100372.88
2023-02-24T22:03:55.507Z,100409.41
2023-02-24T22:06:23.375Z,100419.78
2023-02-24T22:08:50.363Z,100405.59
2023-02-24T22:11:19.897Z,100417.78
2023-02-24T22:13:46.971Z,100334.19
2023-02-24T22:16:18.254Z,100387.56
2023-02-24T22:18:46.602Z,100421.56
2023-02-24T22:21:18.709Z,100412.44
2023-02-24T22:23:47.833Z,100403.31
2023-02-24T22:26:16.880Z,100327.41
2023-02-24T22:28:45.373Z,100414.66
2023-02-24T22:31:13.923Z,100406.50
2023-02-24T22:33:42.054Z,100417.00
2023-02-24T22:36:15.030Z,100412.28
2023-02-24T22:38:45.730Z,100419.97
2023-02-24T22:41:14.999Z,100415.75
2023-02-24T22:43:42.068Z,100421.84
2023-02-24T22:46:13.184Z,100425.41
2023-02-24T22:48:40.149Z,100420.50
2023-02-24T22:51:09.331Z,100430.16
2023-02-24T22:53:39.242Z,100421.63
2023-02-24T22:56:07.062Z,100418.09
2023-02-24T22:58:33.948Z,100428.41
2023-02-24T23:01:00.904Z,100408.03
2023-02-24T23:03:33.144Z,100426.47
2023-02-24T23:06:02.505Z,100393.34
2023-02-24T23:08:31.719Z,100426.91
2023-02-24T23:11:06.908Z,100456.75
2023-02-24T23:13:35.427Z,100429.78
2023-02-24T23:16:03.612Z,100428.78
2023-02-24T23:18:33.012Z,100457.75
2023-02-24T23:21:01.285Z,100457.56
2023-02-24T23:23:28.232Z,100458.16
2023-02-24T23:25:54.992Z,100449.59
2023-02-24T23:28:21.878Z,100431.75
2023-02-24T23:30:48.607Z,100456.09
2023-02-24T23:33:15.557Z,100454.16
2023-02-24T23:35:42.469Z,100457.09
2023-02-24T23:38:10.094Z,100386.59
2023-02-24T23:40:49.581Z,100419.72
2023-02-24T23:43:17.099Z,100457.41
2023-02-24T23:45:43.930Z,100460.88
2023-02-24T23:48:13.037Z,100443.75
2023-02-24T23:50:41.741Z,100464.63
2023-02-24T23:53:09.411Z,100388.66
2023-02-24T23:55:38.975Z,100473.84
2023-02-24T23:58:05.720Z,100477.31
